createdAt,value
2022-08-07T00:00:30.818Z,3.42
2022-08-07T00:02:57.581Z,3.47
2022-08-07T00:05:26.270Z,2.80
2022-08-07T00:08:00.116Z,3.13
2022-08-07T00:10:32.498Z,3.38
2022-08-07T00:13:09.910Z,3.00
2022-08-07T00:15:51.783Z,3.08
2022-08-07T00:18:24.925Z,2.92
2022-08-07T00:21:03.479Z,3.55
2022-08-07T00:23:37.686Z,3.20
2022-08-07T00:26:18.861Z,3.38
2022-08-07T00:28:57.759Z,3.65
2022-08-07T00:31:38.045Z,3.53
2022-08-07T00:34:08.815Z,3.28
2022-08-07T00:36:38.606Z,3.45
2022-08-07T00:39:09.647Z,3.17
2022-08-07T00:42:01.384Z,3.70
2022-08-07T00:44:28.630Z,3.65
2022-08-07T00:46:55.568Z,3.90
2022-08-07T00:49:24.893Z,3.67
2022-08-07T00:52:09.984Z,4.28
2022-08-07T00:54:36.691Z,4.32
2022-08-07T00:57:09.251Z,4.07
2022-08-07T00:59:37.816Z,4.03
2022-08-07T01:02:14.111Z,4.28
2022-08-07T01:04:53.419Z,4.85
2022-08-07T01:07:24.917Z,3.67
2022-08-07T01:10:05.737Z,4.57
2022-08-07T01:12:38.112Z,5.00
2022-08-07T01:15:07.417Z,5.03
2022-08-07T01:17:40.027Z,5.20
2022-08-07T01:20:16.578Z,5.50
2022-08-07T01:22:54.058Z,4.40
2022-08-07T01:25:54.614Z,4.43
2022-08-07T01:28:15.388Z,4.13
2022-08-07T01:30:42.488Z,3.70
2022-08-07T01:33:09.221Z,4.43
2022-08-07T01:35:53.667Z,3.97
2022-08-07T01:38:24.879Z,3.60
2022-08-07T01:40:55.626Z,3.70
2022-08-07T01:43:23.221Z,4.10
2022-08-07T01:45:54.774Z,3.97
2022-08-07T01:48:29.325Z,3.58
2022-08-07T01:51:24.558Z,4.53
2022-08-07T01:54:08.924Z,3.38
2022-08-07T01:57:01.859Z,3.88
2022-08-07T01:59:43.917Z,3.60
2022-08-07T02:03:12.044Z,3.65
2022-08-07T02:05:16.119Z,3.88
2022-08-07T02:07:58.189Z,4.15
2022-08-07T02:10:28.048Z,3.70
2022-08-07T02:12:59.662Z,3.88
2022-08-07T02:15:28.252Z,3.20
2022-08-07T02:17:56.497Z,3.33
2022-08-07T02:20:24.569Z,3.60
2022-08-07T02:22:59.687Z,3.08
2022-08-07T02:25:32.134Z,3.00
2022-08-07T02:28:25.275Z,3.45
2022-08-07T02:30:55.223Z,3.15
2022-08-07T02:33:25.405Z,3.03
2022-08-07T02:36:29.027Z,3.05
2022-08-07T02:39:09.285Z,3.30
2022-08-07T02:41:54.920Z,2.95
2022-08-07T02:44:27.497Z,3.00
2022-08-07T02:47:03.180Z,2.70
2022-08-07T02:49:58.592Z,3.00
2022-08-07T02:52:32.057Z,2.42
2022-08-07T02:55:04.400Z,3.10
2022-08-07T02:57:34.953Z,3.08
2022-08-07T03:00:11.187Z,2.50
2022-08-07T03:02:41.927Z,2.65
2022-08-07T03:05:23.140Z,2.88
2022-08-07T03:08:07.394Z,2.35
2022-08-07T03:10:40.898Z,2.33
2022-08-07T03:13:19.509Z,2.60
2022-08-07T03:15:55.626Z,2.28
2022-08-07T03:18:24.466Z,2.67
2022-08-07T03:21:02.032Z,2.28
2022-08-07T03:23:34.181Z,2.50
2022-08-07T03:26:21.090Z,2.60
2022-08-07T03:28:51.579Z,2.70
2022-08-07T03:31:24.790Z,2.30
2022-08-07T03:34:18.485Z,2.33
2022-08-07T03:36:50.744Z,2.40
2022-08-07T03:39:46.144Z,2.50
2022-08-07T03:42:06.350Z,2.88
2022-08-07T03:44:38.444Z,2.20
2022-08-07T03:47:11.191Z,2.30
2022-08-07T03:49:52.058Z,2.60
2022-08-07T03:52:26.724Z,2.08
2022-08-07T03:55:06.453Z,2.70
2022-08-07T03:58:33.518Z,2.63
2022-08-07T04:00:29.147Z,2.17
2022-08-07T04:02:58.948Z,2.28
2022-08-07T04:05:39.398Z,2.13
2022-08-07T04:08:13.203Z,2.50
2022-08-07T04:10:54.726Z,2.45
2022-08-07T04:14:10.681Z,2.33
2022-08-07T04:16:31.445Z,2.30
2022-08-07T04:19:01.718Z,2.60
2022-08-07T04:21:33.322Z,2.13
2022-08-07T04:24:07.062Z,2.75
2022-08-07T04:26:34.906Z,2.83
2022-08-07T04:29:02.962Z,2.42
2022-08-07T04:31:38.880Z,2.40
2022-08-07T04:34:27.450Z,2.58
2022-08-07T04:37:00.887Z,2.40
2022-08-07T04:39:29.387Z,2.67
2022-08-07T04:42:04.028Z,2.28
2022-08-07T04:44:30.840Z,2.72
2022-08-07T04:47:57.405Z,2.20
2022-08-07T04:50:11.120Z,2.47
2022-08-07T04:52:53.781Z,2.60
2022-08-07T04:58:12.161Z,2.50
2022-08-07T04:59:15.806Z,2.80
2022-08-07T05:01:51.894Z,2.53
2022-08-07T05:04:31.690Z,2.67
2022-08-07T05:07:20.431Z,2.75
2022-08-07T05:09:59.699Z,2.80
2022-08-07T05:12:35.659Z,3.08
2022-08-07T05:15:26.975Z,2.85
2022-08-07T05:18:09.139Z,2.60
2022-08-07T05:20:45.765Z,2.63
2022-08-07T05:23:30.005Z,2.83
2022-08-07T05:26:13.492Z,3.22
2022-08-07T05:28:50.299Z,3.40
2022-08-07T05:31:20.355Z,3.00
2022-08-07T05:34:04.595Z,3.33
2022-08-07T05:36:35.153Z,3.38
2022-08-07T05:39:47.675Z,3.78
2022-08-07T05:42:03.048Z,3.53
2022-08-07T05:44:33.926Z,3.35
2022-08-07T05:47:01.855Z,3.70
2022-08-07T05:49:48.047Z,3.35
2022-08-07T05:52:14.714Z,3.25
2022-08-07T05:54:55.555Z,3.65
2022-08-07T05:57:26.543Z,3.88
2022-08-07T05:59:59.324Z,4.03
2022-08-07T06:02:30.549Z,3.60
2022-08-07T06:05:03.486Z,3.88
2022-08-07T06:08:13.169Z,4.22
2022-08-07T06:10:18.843Z,4.22
2022-08-07T06:12:47.461Z,5.00
2022-08-07T06:15:16.415Z,4.00
2022-08-07T06:17:53.926Z,4.05
2022-08-07T06:20:25.469Z,4.03
2022-08-07T06:23:02.326Z,4.75
2022-08-07T06:25:54.619Z,4.07
2022-08-07T06:28:27.332Z,4.50
2022-08-07T06:30:55.462Z,4.35
2022-08-07T06:33:22.928Z,5.15
2022-08-07T06:36:06.639Z,4.75
2022-08-07T06:38:36.228Z,5.03
2022-08-07T06:41:09.756Z,5.40
2022-08-07T06:43:46.508Z,5.50
2022-08-07T06:46:31.383Z,4.85
2022-08-07T06:49:03.942Z,5.20
2022-08-07T06:51:34.874Z,5.00
2022-08-07T06:55:28.954Z,5.00
2022-08-07T06:56:52.272Z,4.78
2022-08-07T07:00:13.503Z,4.75
2022-08-07T07:02:48.380Z,4.45
2022-08-07T07:05:09.296Z,5.05
2022-08-07T07:08:00.387Z,5.30
2022-08-07T07:10:35.853Z,5.13
2022-08-07T07:13:15.128Z,5.18
2022-08-07T07:15:51.622Z,6.07
2022-08-07T07:18:55.868Z,5.60
2022-08-07T07:21:27.268Z,5.85
2022-08-07T07:24:12.571Z,5.03
2022-08-07T07:26:49.693Z,5.60
2022-08-07T07:29:57.247Z,5.82
2022-08-07T07:32:14.451Z,5.50
2022-08-07T07:34:46.644Z,5.65
2022-08-07T07:37:44.333Z,5.28
2022-08-07T07:40:14.929Z,4.82
2022-08-07T07:42:47.083Z,4.70
2022-08-07T07:45:19.351Z,5.05
2022-08-07T07:47:53.272Z,4.80
2022-08-07T07:50:34.082Z,4.60
2022-08-07T07:53:20.199Z,4.43
2022-08-07T07:55:54.661Z,4.28
2022-08-07T07:58:29.566Z,3.63
2022-08-07T08:00:58.793Z,3.67
2022-08-07T08:04:10.016Z,3.90
2022-08-07T08:06:19.455Z,3.50
2022-08-07T08:08:50.458Z,3.15
2022-08-07T08:11:18.235Z,3.58
2022-08-07T08:14:04.751Z,3.20
2022-08-07T08:16:50.397Z,3.58
2022-08-07T08:20:17.399Z,3.33
2022-08-07T08:22:32.732Z,3.70
2022-08-07T08:25:41.805Z,3.15
2022-08-07T08:28:12.513Z,3.10
2022-08-07T08:30:51.118Z,3.38
2022-08-07T08:33:22.885Z,3.33
2022-08-07T08:35:51.847Z,3.08
2022-08-07T08:38:29.313Z,3.05
2022-08-07T08:41:31.556Z,3.25
2022-08-07T08:44:29.627Z,3.10
2022-08-07T08:47:09.948Z,3.40
2022-08-07T08:50:02.385Z,3.35
2022-08-07T08:52:40.896Z,3.58
2022-08-07T08:55:54.848Z,3.58
2022-08-07T08:58:57.164Z,3.85
2022-08-07T09:01:46.419Z,3.67
2022-08-07T09:04:37.761Z,3.38
2022-08-07T09:07:45.873Z,3.35
2022-08-07T09:10:32.989Z,3.00
2022-08-07T09:13:18.020Z,3.20
2022-08-07T09:16:20.556Z,3.20
2022-08-07T09:19:53.412Z,3.42
2022-08-07T09:24:28.719Z,3.13
2022-08-07T09:25:37.832Z,3.00
2022-08-07T09:30:01.889Z,3.15
2022-08-07T09:31:11.833Z,3.75
2022-08-07T09:33:56.883Z,3.30
2022-08-07T09:36:42.986Z,2.80
2022-08-07T09:39:54.189Z,3.30
2022-08-07T09:42:24.839Z,3.77
2022-08-07T09:47:50.386Z,5.60
2022-08-07T09:48:30.122Z,4.00
2022-08-07T09:51:14.546Z,2.90
2022-08-07T09:54:02.563Z,3.28
2022-08-07T09:56:37.363Z,3.47
2022-08-07T09:59:13.914Z,3.15
2022-08-07T10:01:52.089Z,3.13
2022-08-07T10:04:53.155Z,3.10
2022-08-07T10:07:59.203Z,3.78
2022-08-07T10:11:00.225Z,3.35
2022-08-07T10:14:00.572Z,4.40
2022-08-07T10:16:49.244Z,3.08
2022-08-07T10:19:19.425Z,3.85
2022-08-07T10:22:16.079Z,2.75
2022-08-07T10:25:04.892Z,3.15
2022-08-07T10:28:09.099Z,3.28
2022-08-07T10:31:11.143Z,4.05
2022-08-07T10:34:05.557Z,4.15
2022-08-07T10:36:53.187Z,4.55
2022-08-07T10:40:03.420Z,4.07
2022-08-07T10:42:39.220Z,4.22
2022-08-07T10:45:44.026Z,4.22
2022-08-07T10:48:41.837Z,3.58
2022-08-07T10:51:57.250Z,4.68
2022-08-07T10:54:25.532Z,5.05
2022-08-07T10:56:54.763Z,4.72
2022-08-07T10:59:47.206Z,4.45
2022-08-07T11:02:33.116Z,5.07
2022-08-07T11:05:44.830Z,5.05
2022-08-07T11:08:34.095Z,4.70
2022-08-07T11:11:14.056Z,4.20
2022-08-07T11:14:46.027Z,4.57
2022-08-07T11:16:54.773Z,4.28
2022-08-07T11:20:03.327Z,3.90
2022-08-07T11:22:43.914Z,4.32
2022-08-07T11:25:23.254Z,3.83
2022-08-07T11:28:09.043Z,3.67
2022-08-07T11:30:53.441Z,3.83
2022-08-07T11:33:59.547Z,4.25
2022-08-07T11:36:54.168Z,3.47
2022-08-07T11:40:00.274Z,3.30
2022-08-07T11:42:51.356Z,3.90
2022-08-07T11:45:36.135Z,3.35
2022-08-07T11:48:30.551Z,3.30
2022-08-07T11:51:00.176Z,2.95
2022-08-07T11:54:00.911Z,3.20
2022-08-07T12:00:12.046Z,3.58
2022-08-07T12:03:08.017Z,3.28
2022-08-07T12:06:00.449Z,3.17
2022-08-07T12:08:58.296Z,3.50
2022-08-07T12:11:32.481Z,3.25
2022-08-07T12:14:22.033Z,3.22
2022-08-07T12:16:55.890Z,3.03
2022-08-07T12:20:03.459Z,3.78
2022-08-07T12:26:22.292Z,3.28
2022-08-07T12:28:57.137Z,3.60
2022-08-07T12:31:53.016Z,3.45
2022-08-07T12:34:32.162Z,3.33
2022-08-07T12:37:00.937Z,3.65
2022-08-07T12:39:42.665Z,3.58
2022-08-07T12:42:15.917Z,3.97
2022-08-07T12:44:47.834Z,3.13
2022-08-07T12:47:37.526Z,3.30
2022-08-07T12:50:38.486Z,3.20
2022-08-07T12:54:03.290Z,3.88
2022-08-07T12:56:31.648Z,3.47
2022-08-07T12:59:00.846Z,3.60
2022-08-07T13:01:55.684Z,3.65
2022-08-07T13:04:44.167Z,4.28
2022-08-07T13:08:19.272Z,3.80
2022-08-07T13:11:23.916Z,3.85
2022-08-07T13:14:06.704Z,3.90
2022-08-07T13:16:42.744Z,4.00
2022-08-07T13:19:50.447Z,3.75
2022-08-07T13:22:31.052Z,3.60
2022-08-07T13:25:29.068Z,3.90
2022-08-07T13:28:13.353Z,3.80
2022-08-07T13:30:49.162Z,3.70
2022-08-07T13:34:33.314Z,3.40
2022-08-07T13:36:39.727Z,3.63
2022-08-07T13:39:49.726Z,3.00
2022-08-07T13:42:19.131Z,3.92
2022-08-07T13:45:11.725Z,3.10
2022-08-07T13:48:05.482Z,3.75
2022-08-07T13:50:44.314Z,4.00
2022-08-07T13:53:21.977Z,3.22
2022-08-07T13:55:54.651Z,3.67
2022-08-07T13:58:56.282Z,3.20
2022-08-07T14:01:26.477Z,3.75
2022-08-07T14:04:06.682Z,4.10
2022-08-07T14:06:39.172Z,3.33
2022-08-07T14:09:16.847Z,3.13
2022-08-07T14:12:07.225Z,3.55
2022-08-07T14:15:05.907Z,3.15
2022-08-07T14:18:23.593Z,4.05
2022-08-07T14:20:39.756Z,2.67
2022-08-07T14:24:00.242Z,2.95
2022-08-07T14:26:29.756Z,4.30
2022-08-07T14:30:06.232Z,3.10
2022-08-07T14:32:04.099Z,3.00
2022-08-07T14:37:03.160Z,2.45
2022-08-07T14:40:15.607Z,3.40
2022-08-07T14:42:31.426Z,3.30
2022-08-07T14:45:21.160Z,2.92
2022-08-07T14:50:44.952Z,3.10
2022-08-07T14:53:13.879Z,3.25
2022-08-07T14:55:56.293Z,3.00
2022-08-07T14:58:35.603Z,2.75
2022-08-07T15:01:21.768Z,2.42
2022-08-07T15:03:52.358Z,2.95
2022-08-07T15:06:25.245Z,2.67
2022-08-07T15:08:55.779Z,2.30
2022-08-07T15:11:53.968Z,3.03
2022-08-07T15:14:22.799Z,2.60
2022-08-07T15:17:02.685Z,2.40
2022-08-07T15:28:35.117Z,2.42
2022-08-07T15:31:05.238Z,2.20
2022-08-07T15:33:36.198Z,2.28
2022-08-07T15:36:07.783Z,2.90
2022-08-07T15:38:59.158Z,2.78
2022-08-07T15:42:44.236Z,2.50
2022-08-07T15:44:21.400Z,2.70
2022-08-07T15:50:05.039Z,2.20
2022-08-07T15:52:36.588Z,2.33
2022-08-07T15:55:11.277Z,2.70
2022-08-07T15:57:48.089Z,2.30
2022-08-07T16:00:31.296Z,2.53
2022-08-07T16:03:04.559Z,2.80
2022-08-07T16:05:31.695Z,2.40
2022-08-07T16:08:30.420Z,2.25
2022-08-07T16:11:00.220Z,2.42
2022-08-07T16:14:03.228Z,2.40
2022-08-07T16:16:57.051Z,2.00
2022-08-07T16:19:41.802Z,2.40
2022-08-07T16:22:36.129Z,2.20
2022-08-07T16:25:52.691Z,2.42
2022-08-07T16:30:07.886Z,2.55
2022-08-07T16:32:32.900Z,2.40
2022-08-07T16:35:52.147Z,2.67
2022-08-07T16:38:09.560Z,2.30
2022-08-07T16:41:01.443Z,2.20
2022-08-07T16:47:08.839Z,2.30
2022-08-07T16:50:26.772Z,2.05
2022-08-07T16:52:55.669Z,2.80
2022-08-07T16:55:47.160Z,2.50
2022-08-07T16:58:54.342Z,2.70
2022-08-07T17:01:22.507Z,2.40
2022-08-07T17:04:12.229Z,2.30
2022-08-07T17:07:08.006Z,2.40
2022-08-07T17:10:08.154Z,2.63
2022-08-07T17:12:53.229Z,1.88
2022-08-07T17:15:44.699Z,2.58
2022-08-07T17:18:23.861Z,2.17
2022-08-07T17:20:54.082Z,2.58
2022-08-07T17:23:46.375Z,2.33
2022-08-07T17:26:31.349Z,2.40
2022-08-07T17:29:04.679Z,2.47
2022-08-07T17:31:43.966Z,2.60
2022-08-07T17:34:33.266Z,2.65
2022-08-07T17:38:04.898Z,2.58
2022-08-07T17:40:07.821Z,2.58
2022-08-07T17:42:59.143Z,2.28
2022-08-07T17:45:41.260Z,2.25
2022-08-07T17:48:30.349Z,2.40
2022-08-07T17:51:14.436Z,2.40
2022-08-07T17:54:11.492Z,2.40
2022-08-07T17:56:49.651Z,3.20
2022-08-07T17:59:50.535Z,2.40
2022-08-07T18:02:35.004Z,2.67
2022-08-07T18:05:20.950Z,2.55
2022-08-07T18:08:03.142Z,2.47
2022-08-07T18:12:06.743Z,2.65
2022-08-07T18:13:52.414Z,2.13
2022-08-07T18:16:34.096Z,3.00
2022-08-07T18:21:12.716Z,2.80
2022-08-07T18:22:15.258Z,2.63
2022-08-07T18:24:51.074Z,2.90
2022-08-07T18:27:39.027Z,3.17
2022-08-07T18:30:31.205Z,2.80
2022-08-07T18:33:33.594Z,2.92
2022-08-07T18:36:32.847Z,3.63
2022-08-07T18:40:06.709Z,2.60
2022-08-07T18:42:18.705Z,2.83
2022-08-07T18:45:39.932Z,2.88
2022-08-07T18:48:10.148Z,3.15
2022-08-07T18:52:25.490Z,3.40
2022-08-07T18:54:37.385Z,3.25
2022-08-07T18:57:30.652Z,3.20
2022-08-07T19:00:33.201Z,2.83
2022-08-07T19:03:16.401Z,3.40
2022-08-07T19:06:01.979Z,3.03
2022-08-07T19:08:58.499Z,3.70
2022-08-07T19:12:04.004Z,3.30
2022-08-07T19:14:55.929Z,3.50
2022-08-07T19:20:29.611Z,3.70
2022-08-07T19:23:18.229Z,3.65
2022-08-07T19:26:22.682Z,3.70
2022-08-07T19:30:57.198Z,3.00
2022-08-07T19:32:10.366Z,3.22
2022-08-07T19:34:34.074Z,3.25
2022-08-07T19:37:10.202Z,3.05
2022-08-07T19:39:57.513Z,3.25
2022-08-07T19:42:40.138Z,3.45
2022-08-07T19:45:12.639Z,3.40
2022-08-07T19:47:59.868Z,3.53
2022-08-07T19:50:43.962Z,3.70
2022-08-07T19:54:32.449Z,3.15
2022-08-07T19:56:05.204Z,3.67
2022-08-07T19:58:52.290Z,3.72
2022-08-07T20:01:21.557Z,4.15
2022-08-07T20:03:52.168Z,3.58
2022-08-07T20:06:30.365Z,3.70
2022-08-07T20:09:02.957Z,3.85
2022-08-07T20:12:00.956Z,4.13
2022-08-07T20:14:31.704Z,4.03
2022-08-07T20:17:02.671Z,4.22
2022-08-07T20:19:47.940Z,4.25
2022-08-07T20:22:28.993Z,3.83
2022-08-07T20:25:06.310Z,3.85
2022-08-07T20:27:47.709Z,4.00
2022-08-07T20:30:21.766Z,3.97
2022-08-07T20:32:53.921Z,3.92
2022-08-07T20:35:26.614Z,3.85
2022-08-07T20:37:58.863Z,3.95
2022-08-07T20:40:32.206Z,4.10
2022-08-07T20:43:02.515Z,3.80
2022-08-07T20:45:33.751Z,3.60
2022-08-07T20:48:29.085Z,3.28
2022-08-07T20:51:02.313Z,3.63
2022-08-07T20:54:03.609Z,3.78
2022-08-07T20:56:30.695Z,3.80
2022-08-07T20:59:02.718Z,3.70
2022-08-07T21:01:45.743Z,3.95
2022-08-07T21:04:26.307Z,3.90
2022-08-07T21:07:03.912Z,3.60
2022-08-07T21:09:52.974Z,3.75
2022-08-07T21:12:31.100Z,4.05
2022-08-07T21:15:02.464Z,3.53
2022-08-07T21:18:02.416Z,3.95
2022-08-07T21:20:30.414Z,4.63
2022-08-07T21:23:08.665Z,3.80
2022-08-07T21:25:38.688Z,4.15
2022-08-07T21:28:49.887Z,3.75
2022-08-07T21:31:12.171Z,3.80
2022-08-07T21:34:09.964Z,3.20
2022-08-07T21:36:50.265Z,3.97
2022-08-07T21:42:42.246Z,3.70
2022-08-07T21:46:07.528Z,3.97
2022-08-07T21:48:57.487Z,3.70
2022-08-07T21:51:27.464Z,4.72
2022-08-07T21:54:05.381Z,4.35
2022-08-07T21:56:47.787Z,4.03
2022-08-07T21:59:18.524Z,4.00
2022-08-07T22:02:11.557Z,3.88
2022-08-07T22:04:51.184Z,4.20
2022-08-07T22:07:58.040Z,4.05
2022-08-07T22:10:21.832Z,4.35
2022-08-07T22:12:55.596Z,4.22
2022-08-07T22:16:43.510Z,3.30
2022-08-07T22:18:40.958Z,3.92
2022-08-07T22:21:21.623Z,3.90
2022-08-07T22:24:23.222Z,4.13
2022-08-07T22:27:10.379Z,3.63
2022-08-07T22:29:49.685Z,3.50
2022-08-07T22:32:27.573Z,3.53
2022-08-07T22:34:57.519Z,4.88
2022-08-07T22:38:02.777Z,3.70
2022-08-07T22:40:33.327Z,3.95
2022-08-07T22:43:10.859Z,3.83
2022-08-07T22:46:42.913Z,3.72
2022-08-07T22:49:05.659Z,3.20
2022-08-07T22:52:03.924Z,3.42
2022-08-07T22:54:49.072Z,3.92
2022-08-07T22:57:44.980Z,3.50
2022-08-07T23:00:16.152Z,3.78
2022-08-07T23:02:52.342Z,4.13
2022-08-07T23:06:08.314Z,3.92
2022-08-07T23:10:06.455Z,4.30
2022-08-07T23:12:09.749Z,3.80
2022-08-07T23:15:06.431Z,3.80
2022-08-07T23:17:47.136Z,3.30
2022-08-07T23:20:51.696Z,3.83
2022-08-07T23:24:06.991Z,3.53
2022-08-07T23:26:36.481Z,3.55
2022-08-07T23:29:43.296Z,3.25
2022-08-07T23:34:22.882Z,3.95
2022-08-07T23:36:17.284Z,3.90
2022-08-07T23:39:08.333Z,3.78
2022-08-07T23:42:04.619Z,3.90
2022-08-07T23:44:51.418Z,4.07
2022-08-07T23:47:21.156Z,4.13
2022-08-07T23:49:52.854Z,3.83
2022-08-07T23:52:59.895Z,3.35
2022-08-07T23:56:04.235Z,4.07
2022-08-07T23:59:10.488Z,4.35
